Gentle Leader — C6WY9 — position and weather

sailwx.info

Track history (hours):
 
Tides and Currents Weather Stations Pressure Air Temp Water Temp Dewpoint Dewpoint Depression Visibility Wind Speed Wind Dir Waves Ship Positions

Gentle Leader

Last reported at 2017-Mar-30 12:33 UTC. Time now 2017-Mar-30 18:42 UTC.
Position N 48°49' W 005°53'.

Length 200 m; draft 8.7 m.

Type: Cargo ship. MMSI: 311003300.

Date/timePositionNaut miles runAvg speedWind from/ knotsBaromVisibWave heightAir tempDewpointWater temp
2017-Mar-30 12:33N 48°49' W 005°53'1616.1
2017-Mar-30 11:33N 48°60' W 005°34'1515.3
2017-Mar-30 10:33N 49°07' W 005°14'1615.7
2017-Mar-30 09:33N 49°15' W 004°53'2014.7
2017-Mar-30 08:13N 49°25' W 004°28'1113.2
2017-Mar-30 07:22N 49°30' W 004°12'1012.6
2017-Mar-30 06:33N 49°36' W 003°59'1313.3
2017-Mar-30 05:33N 49°42' W 003°41'1514.7
2017-Mar-30 04:33N 49°50' W 003°21'1717.0
2017-Mar-30 03:34N 49°58' W 002°58'2819.0
2017-Mar-30 02:06N 50°06' W 002°17'1019.0
2017-Mar-30 01:33N 50°10' W 002°02'1817.6
2017-Mar-30 00:33N 50°19' W 001°38'1615.9
2017-Mar-29 23:33N 50°26' W 001°16'1413.6
2017-Mar-29 22:34N 50°35' W 001°00'1111.1
2017-Mar-29 21:33N 50°45' W 001°07'1010.3
2017-Mar-29 20:33N 50°51' W 001°21'3 2.9
2017-Mar-29 19:29N 50°53' W 001°24'0 0.0
2017-Mar-29 18:17N 50°53' W 001°24'0 0.0
2017-Mar-29 16:11N 50°53' W 001°24'0 0.0
2017-Mar-29 15:29N 50°53' W 001°24'0 0.0
2017-Mar-29 14:23N 50°53' W 001°24'0 0.0
2017-Mar-29 13:32N 50°53' W 001°24'0 0.0
2017-Mar-29 12:29N 50°53' W 001°24'0 0.0
2017-Mar-29 11:29N 50°53' W 001°24'6 5.9
2017-Mar-29 10:33N 50°49' W 001°18'1111.0
2017-Mar-29 09:34N 50°44' W 001°03'1010.0
2017-Mar-29 08:33N 50°38' W 000°51'10 9.5
2017-Mar-29 07:33N 50°35' W 000°36'10 9.7
2017-Mar-29 06:33N 50°33' W 000°21'1010.1
2017-Mar-29 05:33N 50°32' W 000°05'1010.5
2017-Mar-29 04:33N 50°34' E 000°11'1111.4
2017-Mar-29 03:33N 50°37' E 000°28'1212.2
2017-Mar-29 02:33N 50°42' E 000°46'1312.0
2017-Mar-29 01:28N 50°50' E 001°02'1010.8
2017-Mar-29 00:33N 50°57' E 001°14'10 9.8
2017-Mar-28 23:33N 51°03' E 001°25'1010.4
2017-Mar-28 22:33N 51°09' E 001°39'1615.9
2017-Mar-28 21:33N 51°23' E 001°52'1817.0
2017-Mar-28 20:30N 51°36' E 002°11'6015.2
2017-Mar-28 16:32N 52°23' E 003°12'1313.7
2017-Mar-28 15:33N 52°34' E 003°24'1413.5
2017-Mar-28 14:33N 52°45' E 003°39'1414.3
2017-Mar-28 13:34N 52°55' E 003°54'1616.0
2017-Mar-28 12:33N 53°06' E 004°15'1616.0
2017-Mar-28 11:33N 53°19' E 004°29'1614.7
2017-Mar-28 10:26N 53°31' E 004°49'1415.4
2017-Mar-28 09:33N 53°36' E 005°10'1414.3
2017-Mar-28 08:33N 53°40' E 005°33'1414.0
2017-Mar-28 07:33N 53°45' E 005°55'1414.3
2017-Mar-28 06:33N 53°49' E 006°18'1515.1
2017-Mar-28 05:33N 53°53' E 006°43'1616.3
2017-Mar-28 04:33N 53°57' E 007°10'1716.7
2017-Mar-28 03:33N 54°01' E 007°37'1716.8
2017-Mar-28 02:33N 54°01' E 008°06'1616.1
2017-Mar-28 01:33N 53°58' E 008°33'1313.0
2017-Mar-28 00:33N 53°50' E 008°51'1211.5
2017-Mar-27 23:33N 53°53' E 009°10'9 9.2
2017-Mar-27 22:34N 53°48' E 009°23'1212.3
2017-Mar-27 21:33N 53°37' E 009°33'1312.7
2017-Mar-27 20:33N 53°33' E 009°53'4 4.1
2017-Mar-27 19:31N 53°32' E 009°60'0 0.0
2017-Mar-27 18:31N 53°32' E 009°60'0 0.0
2017-Mar-27 17:31N 53°32' E 009°60'0 0.0
2017-Mar-27 16:31N 53°32' E 009°60'0 0.0
2017-Mar-27 15:31N 53°32' E 009°60'0 0.0
2017-Mar-27 14:31N 53°32' E 009°60'0 0.0
2017-Mar-27 13:31N 53°32' E 009°60'0 0.0
2017-Mar-27 12:31N 53°32' E 009°60'2 2.6
2017-Mar-27 11:33N 53°32' E 009°56'8 7.6
2017-Mar-27 10:33N 53°34' E 009°43'9 8.7
2017-Mar-27 09:33N 53°39' E 009°31'1211.8
2017-Mar-27 08:33N 53°49' E 009°22'10 9.5
2017-Mar-27 07:33N 53°53' E 009°07'9 9.4
2017-Mar-27 06:33N 53°50' E 008°52'9 8.7
2017-Mar-27 05:33N 53°56' E 008°40'1110.8
2017-Mar-27 04:33N 53°59' E 008°22'1212.1
2017-Mar-27 03:33N 53°59' E 008°02'10 9.9
2017-Mar-27 02:33N 53°53' E 007°48'1413.9
2017-Mar-27 01:33N 53°47' E 008°09'1515.4
2017-Mar-27 00:33N 53°37' E 008°29'4 3.8
2017-Mar-26 23:33N 53°34' E 008°33'0 0.4
2017-Mar-26 22:33N 53°35' E 008°33'0 0.0
2017-Mar-26 21:33N 53°35' E 008°33'0 0.0
2017-Mar-26 20:33N 53°35' E 008°33'0 0.0
2017-Mar-26 19:33N 53°35' E 008°33'0 0.0
2017-Mar-26 18:33N 53°35' E 008°33'0 0.0
2017-Mar-26 17:33N 53°35' E 008°33'0 0.0
2017-Mar-26 16:33N 53°35' E 008°33'0 0.0
2017-Mar-26 15:33N 53°35' E 008°33'0 0.0
2017-Mar-26 14:33N 53°35' E 008°33'0 0.0
2017-Mar-26 13:33N 53°35' E 008°33'0 0.0
2017-Mar-26 12:33N 53°35' E 008°33'0 0.0
2017-Mar-26 11:33N 53°35' E 008°33'0 0.2
2017-Mar-26 10:33N 53°34' E 008°33'1 0.7
2017-Mar-26 09:32N 53°34' E 008°34'0 0.0
2017-Mar-26 08:32N 53°34' E 008°34'0 0.0
2017-Mar-26 07:32N 53°34' E 008°34'0 0.0
2017-Mar-26 06:32N 53°34' E 008°34'0 0.0
2017-Mar-26 05:32N 53°34' E 008°34'0 0.0
2017-Mar-26 04:29N 53°34' E 008°34'0 0.0
2017-Mar-26 03:32N 53°34' E 008°34'0 0.0
2017-Mar-26 02:32N 53°34' E 008°34'0 0.0
2017-Mar-26 01:32N 53°34' E 008°34'0 0.0
2017-Mar-26 00:32N 53°34' E 008°34'0 0.0
2017-Mar-25 23:33N 53°34' E 008°34'1 0.6
2017-Mar-25 22:33N 53°33' E 008°34'8 8.4
2017-Mar-25 21:33N 53°39' E 008°24'1615.9
2017-Mar-25 20:33N 53°50' E 008°04'4915.9
2017-Mar-25 17:29N 53°48' E 006°41'1516.1
2017-Mar-25 16:33N 53°44' E 006°17'1615.8
2017-Mar-25 15:33N 53°39' E 005°51'1816.0
2017-Mar-25 14:25N 53°34' E 005°22'1315.0
2017-Mar-25 13:33N 53°29' E 005°01'1414.6
2017-Mar-25 12:33N 53°22' E 004°41'1514.6
2017-Mar-25 11:33N 53°09' E 004°29'1514.7
2017-Mar-25 10:34N 52°56' E 004°17'1414.4
2017-Mar-25 09:33N 52°44' E 004°05'1514.6
2017-Mar-25 08:33N 52°32' E 003°50'1514.7
2017-Mar-25 07:33N 52°20' E 003°37'1514.7
2017-Mar-25 06:33N 52°07' E 003°26'1514.7
2017-Mar-25 05:33N 51°52' E 003°22'1311.9
2017-Mar-25 04:28N 51°41' E 003°12'1415.5
2017-Mar-25 03:33N 51°28' E 003°02'1414.1
2017-Mar-25 02:33N 51°25' E 003°24'1211.8
2017-Mar-25 01:33N 51°24' E 003°43'1010.2
2017-Mar-25 00:33N 51°26' E 003°59'9 8.8
2017-Mar-24 23:33N 51°24' E 004°12'7 7.1
2017-Mar-24 22:33N 51°17' E 004°15'1 0.6
2017-Mar-24 21:33N 51°16' E 004°14'1 0.7
2017-Mar-24 20:33N 51°16' E 004°13'0 0.0
2017-Mar-24 19:33N 51°16' E 004°13'0 0.0
2017-Mar-24 18:33N 51°16' E 004°13'0 0.0
2017-Mar-24 17:30N 51°16' E 004°13'0 0.0
2017-Mar-24 16:33N 51°16' E 004°13'0 0.0
2017-Mar-24 15:27N 51°16' E 004°13'0 0.0
2017-Mar-24 14:33N 51°16' E 004°13'0 0.0
2017-Mar-24 13:33N 51°16' E 004°13'0 0.0
2017-Mar-24 12:33N 51°16' E 004°13'0 0.0
2017-Mar-24 11:33N 51°16' E 004°13'0 0.0
2017-Mar-24 10:33N 51°16' E 004°13'0 0.0
2017-Mar-24 09:33N 51°16' E 004°13'0 0.0
2017-Mar-24 08:33N 51°16' E 004°13'0 0.0
2017-Mar-24 07:33N 51°16' E 004°13'0 0.0
2017-Mar-24 06:33N 51°16' E 004°13'0 0.0
2017-Mar-24 05:33N 51°16' E 004°13'0 0.0
2017-Mar-24 04:33N 51°16' E 004°13'0 0.0
2017-Mar-24 03:33N 51°16' E 004°13'0 0.0
2017-Mar-24 02:30N 51°16' E 004°13'0 0.2
2017-Mar-24 01:33N 51°17' E 004°13'2 2.2
2017-Mar-24 00:34N 51°16' E 004°17'2 2.1
2017-Mar-23 23:33N 51°18' E 004°18'9 8.7
2017-Mar-23 22:32N 51°22' E 004°06'9 9.4
2017-Mar-23 21:33N 51°21' E 003°52'1212.3
2017-Mar-23 20:33N 51°25' E 003°33'1110.8
2017-Mar-23 19:34N 51°24' E 003°16'5 4.8
2017-Mar-23 18:33N 51°20' E 003°13'0 0.5
2017-Mar-23 17:34N 51°20' E 003°13'1 1.1
2017-Mar-23 16:32N 51°19' E 003°14'0 0.0
2017-Mar-23 15:32N 51°19' E 003°14'0 0.0
2017-Mar-23 14:32N 51°19' E 003°14'0 0.0
2017-Mar-23 13:32N 51°19' E 003°14'0 0.0
2017-Mar-23 12:33N 51°19' E 003°14'0 0.0
2017-Mar-23 11:32N 51°19' E 003°14'0 0.0
2017-Mar-23 10:32N 51°19' E 003°14'0 0.0
2017-Mar-23 09:32N 51°19' E 003°14'0 0.0
2017-Mar-23 08:32N 51°19' E 003°14'0 0.0
2017-Mar-23 07:32N 51°19' E 003°14'0 0.0
2017-Mar-23 06:32N 51°19' E 003°14'0 0.0
2017-Mar-23 05:32N 51°19' E 003°14'1 1.4
2017-Mar-23 04:32N 51°20' E 003°13'0 0.1
2017-Mar-23 03:33N 51°20' E 003°13'9 8.7
2017-Mar-23 02:33N 51°24' E 003°00'1211.9
2017-Mar-23 01:33N 51°22' E 002°42'3 2.7
2017-Mar-23 00:33N 51°22' E 002°37'10 9.7
2017-Mar-22 23:33N 51°20' E 002°22'9 8.7
2017-Mar-22 22:33N 51°15' E 002°10'4 3.8
2017-Mar-22 21:33N 51°13' E 002°05'4 4.5
2017-Mar-22 20:33N 51°11' E 001°59'1514.8
2017-Mar-22 19:33N 51°02' E 001°40'6315.7
2017-Mar-22 15:33N 50°24' E 000°21'1817.9
2017-Mar-22 14:34N 50°19' W 000°06'3819.2
2017-Mar-22 12:33N 50°09' W 001°04'1918.7
2017-Mar-22 11:33N 50°04' W 001°32'1818.0
2017-Mar-22 10:33N 49°59' W 001°59'3517.6
2017-Mar-22 08:33N 49°51' W 002°52'1817.8
2017-Mar-22 07:33N 49°49' W 003°19'1818.1
2017-Mar-22 06:32N 49°49' W 003°48'1918.2
2017-Mar-22 05:31N 49°49' W 004°17'1818.2
2017-Mar-22 04:33N 49°48' W 004°44'1818.2
2017-Mar-22 03:33N 49°48' W 005°12'4413.6
2017-Mar-22 00:18N 50°19' W 006°01'1417.2
2017-Mar-21 23:31N 50°32' W 005°54'1515.7
2017-Mar-21 22:34N 50°41' W 005°35'1515.4
2017-Mar-21 21:34N 50°49' W 005°15'1515.4
2017-Mar-21 20:33N 50°58' W 004°54'1615.7
2017-Mar-21 19:33N 51°07' W 004°34'1616.0
2017-Mar-21 18:34N 51°17' W 004°15'3817.5
2017-Mar-21 16:23N 51°21' W 003°14'1113.9
2017-Mar-21 15:34N 51°27' W 002°59'10 9.7
2017-Mar-21 14:32N 51°30' W 002°44'0 0.4
2017-Mar-21 13:32N 51°30' W 002°43'0 0.0
2017-Mar-21 12:32N 51°30' W 002°43'0 0.0
2017-Mar-21 11:32N 51°30' W 002°43'0 0.0
2017-Mar-21 10:32N 51°30' W 002°43'0 0.0
2017-Mar-21 09:32N 51°30' W 002°43'0 0.0
2017-Mar-21 08:32N 51°30' W 002°43'0 0.0
2017-Mar-21 07:32N 51°30' W 002°43'0 0.0
2017-Mar-21 06:32N 51°30' W 002°43'0 0.0
2017-Mar-21 05:32N 51°30' W 002°43'0 0.0
2017-Mar-21 04:32N 51°30' W 002°43'0 0.0
2017-Mar-21 03:32N 51°30' W 002°43'0 0.0
2017-Mar-21 02:32N 51°30' W 002°43'0 0.0
2017-Mar-21 01:32N 51°30' W 002°43'0 0.0
2017-Mar-21 00:32N 51°30' W 002°43'0 0.0
2017-Mar-20 23:32N 51°30' W 002°43'0 0.0
2017-Mar-20 22:32N 51°30' W 002°43'0 0.4
2017-Mar-20 21:34N 51°30' W 002°43'2 1.8
2017-Mar-20 20:34N 51°30' W 002°46'1817.4
2017-Mar-20 19:33N 51°21' W 003°11'2110.2
2017-Mar-20 17:26N 51°19' W 003°45'1513.5
2017-Mar-20 16:20N 51°18' W 004°09'1113.9
2017-Mar-20 15:34N 51°13' W 004°24'1414.3
2017-Mar-20 14:34N 51°04' W 004°42'1514.5
2017-Mar-20 13:34N 50°56' W 005°01'1514.7
2017-Mar-20 12:34N 50°47' W 005°20'  
Track history (hours):
 
Tides and Currents Weather Stations Pressure Air Temp Water Temp Dewpoint Dewpoint Depression Visibility Wind Speed Wind Dir Waves Ship Positions

Gentle Leader

Last reported at 2017-Mar-30 12:33 UTC. Time now 2017-Mar-30 18:42 UTC.
Position N 48°49' W 005°53'.

Length 200 m; draft 8.7 m.

Type: Cargo ship. MMSI: 311003300.

Date/timePositionNaut miles runAvg speedWind from/ knotsBaromVisibWave heightAir tempDewpointWater temp
2017-Mar-30 12:33N 48°49' W 005°53'1616.1
2017-Mar-30 11:33N 48°60' W 005°34'1515.3
2017-Mar-30 10:33N 49°07' W 005°14'1615.7
2017-Mar-30 09:33N 49°15' W 004°53'2014.7
2017-Mar-30 08:13N 49°25' W 004°28'1113.2
2017-Mar-30 07:22N 49°30' W 004°12'1012.6
2017-Mar-30 06:33N 49°36' W 003°59'1313.3
2017-Mar-30 05:33N 49°42' W 003°41'1514.7
2017-Mar-30 04:33N 49°50' W 003°21'1717.0
2017-Mar-30 03:34N 49°58' W 002°58'2819.0
2017-Mar-30 02:06N 50°06' W 002°17'1019.0
2017-Mar-30 01:33N 50°10' W 002°02'1817.6
2017-Mar-30 00:33N 50°19' W 001°38'1615.9
2017-Mar-29 23:33N 50°26' W 001°16'1413.6
2017-Mar-29 22:34N 50°35' W 001°00'1111.1
2017-Mar-29 21:33N 50°45' W 001°07'1010.3
2017-Mar-29 20:33N 50°51' W 001°21'3 2.9
2017-Mar-29 19:29N 50°53' W 001°24'0 0.0
2017-Mar-29 18:17N 50°53' W 001°24'0 0.0
2017-Mar-29 16:11N 50°53' W 001°24'0 0.0
2017-Mar-29 15:29N 50°53' W 001°24'0 0.0
2017-Mar-29 14:23N 50°53' W 001°24'0 0.0
2017-Mar-29 13:32N 50°53' W 001°24'0 0.0
2017-Mar-29 12:29N 50°53' W 001°24'0 0.0
2017-Mar-29 11:29N 50°53' W 001°24'6 5.9
2017-Mar-29 10:33N 50°49' W 001°18'1111.0
2017-Mar-29 09:34N 50°44' W 001°03'1010.0
2017-Mar-29 08:33N 50°38' W 000°51'10 9.5
2017-Mar-29 07:33N 50°35' W 000°36'10 9.7
2017-Mar-29 06:33N 50°33' W 000°21'1010.1
2017-Mar-29 05:33N 50°32' W 000°05'1010.5
2017-Mar-29 04:33N 50°34' E 000°11'1111.4
2017-Mar-29 03:33N 50°37' E 000°28'1212.2
2017-Mar-29 02:33N 50°42' E 000°46'1312.0
2017-Mar-29 01:28N 50°50' E 001°02'1010.8
2017-Mar-29 00:33N 50°57' E 001°14'10 9.8
2017-Mar-28 23:33N 51°03' E 001°25'1010.4
2017-Mar-28 22:33N 51°09' E 001°39'1615.9
2017-Mar-28 21:33N 51°23' E 001°52'1817.0
2017-Mar-28 20:30N 51°36' E 002°11'6015.2
2017-Mar-28 16:32N 52°23' E 003°12'1313.7
2017-Mar-28 15:33N 52°34' E 003°24'1413.5
2017-Mar-28 14:33N 52°45' E 003°39'1414.3
2017-Mar-28 13:34N 52°55' E 003°54'1616.0
2017-Mar-28 12:33N 53°06' E 004°15'1616.0
2017-Mar-28 11:33N 53°19' E 004°29'1614.7
2017-Mar-28 10:26N 53°31' E 004°49'1415.4
2017-Mar-28 09:33N 53°36' E 005°10'1414.3
2017-Mar-28 08:33N 53°40' E 005°33'1414.0
2017-Mar-28 07:33N 53°45' E 005°55'1414.3
2017-Mar-28 06:33N 53°49' E 006°18'1515.1
2017-Mar-28 05:33N 53°53' E 006°43'1616.3
2017-Mar-28 04:33N 53°57' E 007°10'1716.7
2017-Mar-28 03:33N 54°01' E 007°37'1716.8
2017-Mar-28 02:33N 54°01' E 008°06'1616.1
2017-Mar-28 01:33N 53°58' E 008°33'1313.0
2017-Mar-28 00:33N 53°50' E 008°51'1211.5
2017-Mar-27 23:33N 53°53' E 009°10'9 9.2
2017-Mar-27 22:34N 53°48' E 009°23'1212.3
2017-Mar-27 21:33N 53°37' E 009°33'1312.7
2017-Mar-27 20:33N 53°33' E 009°53'4 4.1
2017-Mar-27 19:31N 53°32' E 009°60'0 0.0
2017-Mar-27 18:31N 53°32' E 009°60'0 0.0
2017-Mar-27 17:31N 53°32' E 009°60'0 0.0
2017-Mar-27 16:31N 53°32' E 009°60'0 0.0
2017-Mar-27 15:31N 53°32' E 009°60'0 0.0
2017-Mar-27 14:31N 53°32' E 009°60'0 0.0
2017-Mar-27 13:31N 53°32' E 009°60'0 0.0
2017-Mar-27 12:31N 53°32' E 009°60'2 2.6
2017-Mar-27 11:33N 53°32' E 009°56'8 7.6
2017-Mar-27 10:33N 53°34' E 009°43'9 8.7
2017-Mar-27 09:33N 53°39' E 009°31'1211.8
2017-Mar-27 08:33N 53°49' E 009°22'10 9.5
2017-Mar-27 07:33N 53°53' E 009°07'9 9.4
2017-Mar-27 06:33N 53°50' E 008°52'9 8.7
2017-Mar-27 05:33N 53°56' E 008°40'1110.8
2017-Mar-27 04:33N 53°59' E 008°22'1212.1
2017-Mar-27 03:33N 53°59' E 008°02'10 9.9
2017-Mar-27 02:33N 53°53' E 007°48'1413.9
2017-Mar-27 01:33N 53°47' E 008°09'1515.4
2017-Mar-27 00:33N 53°37' E 008°29'4 3.8
2017-Mar-26 23:33N 53°34' E 008°33'0 0.4
2017-Mar-26 22:33N 53°35' E 008°33'0 0.0
2017-Mar-26 21:33N 53°35' E 008°33'0 0.0
2017-Mar-26 20:33N 53°35' E 008°33'0 0.0
2017-Mar-26 19:33N 53°35' E 008°33'0 0.0
2017-Mar-26 18:33N 53°35' E 008°33'0 0.0
2017-Mar-26 17:33N 53°35' E 008°33'0 0.0
2017-Mar-26 16:33N 53°35' E 008°33'0 0.0
2017-Mar-26 15:33N 53°35' E 008°33'0 0.0
2017-Mar-26 14:33N 53°35' E 008°33'0 0.0
2017-Mar-26 13:33N 53°35' E 008°33'0 0.0
2017-Mar-26 12:33N 53°35' E 008°33'0 0.0
2017-Mar-26 11:33N 53°35' E 008°33'0 0.2
2017-Mar-26 10:33N 53°34' E 008°33'1 0.7
2017-Mar-26 09:32N 53°34' E 008°34'0 0.0
2017-Mar-26 08:32N 53°34' E 008°34'0 0.0
2017-Mar-26 07:32N 53°34' E 008°34'0 0.0
2017-Mar-26 06:32N 53°34' E 008°34'0 0.0
2017-Mar-26 05:32N 53°34' E 008°34'0 0.0
2017-Mar-26 04:29N 53°34' E 008°34'0 0.0
2017-Mar-26 03:32N 53°34' E 008°34'0 0.0
2017-Mar-26 02:32N 53°34' E 008°34'0 0.0
2017-Mar-26 01:32N 53°34' E 008°34'0 0.0
2017-Mar-26 00:32N 53°34' E 008°34'0 0.0
2017-Mar-25 23:33N 53°34' E 008°34'1 0.6
2017-Mar-25 22:33N 53°33' E 008°34'8 8.4
2017-Mar-25 21:33N 53°39' E 008°24'1615.9
2017-Mar-25 20:33N 53°50' E 008°04'4915.9
2017-Mar-25 17:29N 53°48' E 006°41'1516.1
2017-Mar-25 16:33N 53°44' E 006°17'1615.8
2017-Mar-25 15:33N 53°39' E 005°51'1816.0
2017-Mar-25 14:25N 53°34' E 005°22'1315.0
2017-Mar-25 13:33N 53°29' E 005°01'1414.6
2017-Mar-25 12:33N 53°22' E 004°41'1514.6
2017-Mar-25 11:33N 53°09' E 004°29'1514.7
2017-Mar-25 10:34N 52°56' E 004°17'1414.4
2017-Mar-25 09:33N 52°44' E 004°05'1514.6
2017-Mar-25 08:33N 52°32' E 003°50'1514.7
2017-Mar-25 07:33N 52°20' E 003°37'1514.7
2017-Mar-25 06:33N 52°07' E 003°26'1514.7
2017-Mar-25 05:33N 51°52' E 003°22'1311.9
2017-Mar-25 04:28N 51°41' E 003°12'1415.5
2017-Mar-25 03:33N 51°28' E 003°02'1414.1
2017-Mar-25 02:33N 51°25' E 003°24'1211.8
2017-Mar-25 01:33N 51°24' E 003°43'1010.2
2017-Mar-25 00:33N 51°26' E 003°59'9 8.8
2017-Mar-24 23:33N 51°24' E 004°12'7 7.1
2017-Mar-24 22:33N 51°17' E 004°15'1 0.6
2017-Mar-24 21:33N 51°16' E 004°14'1 0.7
2017-Mar-24 20:33N 51°16' E 004°13'0 0.0
2017-Mar-24 19:33N 51°16' E 004°13'0 0.0
2017-Mar-24 18:33N 51°16' E 004°13'0 0.0
2017-Mar-24 17:30N 51°16' E 004°13'0 0.0
2017-Mar-24 16:33N 51°16' E 004°13'0 0.0
2017-Mar-24 15:27N 51°16' E 004°13'0 0.0
2017-Mar-24 14:33N 51°16' E 004°13'0 0.0
2017-Mar-24 13:33N 51°16' E 004°13'0 0.0
2017-Mar-24 12:33N 51°16' E 004°13'0 0.0
2017-Mar-24 11:33N 51°16' E 004°13'0 0.0
2017-Mar-24 10:33N 51°16' E 004°13'0 0.0
2017-Mar-24 09:33N 51°16' E 004°13'0 0.0
2017-Mar-24 08:33N 51°16' E 004°13'0 0.0
2017-Mar-24 07:33N 51°16' E 004°13'0 0.0
2017-Mar-24 06:33N 51°16' E 004°13'0 0.0
2017-Mar-24 05:33N 51°16' E 004°13'0 0.0
2017-Mar-24 04:33N 51°16' E 004°13'0 0.0
2017-Mar-24 03:33N 51°16' E 004°13'0 0.0
2017-Mar-24 02:30N 51°16' E 004°13'0 0.2
2017-Mar-24 01:33N 51°17' E 004°13'2 2.2
2017-Mar-24 00:34N 51°16' E 004°17'2 2.1
2017-Mar-23 23:33N 51°18' E 004°18'9 8.7
2017-Mar-23 22:32N 51°22' E 004°06'9 9.4
2017-Mar-23 21:33N 51°21' E 003°52'1212.3
2017-Mar-23 20:33N 51°25' E 003°33'1110.8
2017-Mar-23 19:34N 51°24' E 003°16'5 4.8
2017-Mar-23 18:33N 51°20' E 003°13'0 0.5
2017-Mar-23 17:34N 51°20' E 003°13'1 1.1
2017-Mar-23 16:32N 51°19' E 003°14'0 0.0
2017-Mar-23 15:32N 51°19' E 003°14'0 0.0
2017-Mar-23 14:32N 51°19' E 003°14'0 0.0
2017-Mar-23 13:32N 51°19' E 003°14'0 0.0
2017-Mar-23 12:33N 51°19' E 003°14'0 0.0
2017-Mar-23 11:32N 51°19' E 003°14'0 0.0
2017-Mar-23 10:32N 51°19' E 003°14'0 0.0
2017-Mar-23 09:32N 51°19' E 003°14'0 0.0
2017-Mar-23 08:32N 51°19' E 003°14'0 0.0
2017-Mar-23 07:32N 51°19' E 003°14'0 0.0
2017-Mar-23 06:32N 51°19' E 003°14'0 0.0
2017-Mar-23 05:32N 51°19' E 003°14'1 1.4
2017-Mar-23 04:32N 51°20' E 003°13'0 0.1
2017-Mar-23 03:33N 51°20' E 003°13'9 8.7
2017-Mar-23 02:33N 51°24' E 003°00'1211.9
2017-Mar-23 01:33N 51°22' E 002°42'3 2.7
2017-Mar-23 00:33N 51°22' E 002°37'10 9.7
2017-Mar-22 23:33N 51°20' E 002°22'9 8.7
2017-Mar-22 22:33N 51°15' E 002°10'4 3.8
2017-Mar-22 21:33N 51°13' E 002°05'4 4.5
2017-Mar-22 20:33N 51°11' E 001°59'1514.8
2017-Mar-22 19:33N 51°02' E 001°40'6315.7
2017-Mar-22 15:33N 50°24' E 000°21'1817.9
2017-Mar-22 14:34N 50°19' W 000°06'3819.2
2017-Mar-22 12:33N 50°09' W 001°04'1918.7
2017-Mar-22 11:33N 50°04' W 001°32'1818.0
2017-Mar-22 10:33N 49°59' W 001°59'3517.6
2017-Mar-22 08:33N 49°51' W 002°52'1817.8
2017-Mar-22 07:33N 49°49' W 003°19'1818.1
2017-Mar-22 06:32N 49°49' W 003°48'1918.2
2017-Mar-22 05:31N 49°49' W 004°17'1818.2
2017-Mar-22 04:33N 49°48' W 004°44'1818.2
2017-Mar-22 03:33N 49°48' W 005°12'4413.6
2017-Mar-22 00:18N 50°19' W 006°01'1417.2
2017-Mar-21 23:31N 50°32' W 005°54'1515.7
2017-Mar-21 22:34N 50°41' W 005°35'1515.4
2017-Mar-21 21:34N 50°49' W 005°15'1515.4
2017-Mar-21 20:33N 50°58' W 004°54'1615.7
2017-Mar-21 19:33N 51°07' W 004°34'1616.0
2017-Mar-21 18:34N 51°17' W 004°15'3817.5
2017-Mar-21 16:23N 51°21' W 003°14'1113.9
2017-Mar-21 15:34N 51°27' W 002°59'10 9.7
2017-Mar-21 14:32N 51°30' W 002°44'0 0.4
2017-Mar-21 13:32N 51°30' W 002°43'0 0.0
2017-Mar-21 12:32N 51°30' W 002°43'0 0.0
2017-Mar-21 11:32N 51°30' W 002°43'0 0.0
2017-Mar-21 10:32N 51°30' W 002°43'0 0.0
2017-Mar-21 09:32N 51°30' W 002°43'0 0.0
2017-Mar-21 08:32N 51°30' W 002°43'0 0.0
2017-Mar-21 07:32N 51°30' W 002°43'0 0.0
2017-Mar-21 06:32N 51°30' W 002°43'0 0.0
2017-Mar-21 05:32N 51°30' W 002°43'0 0.0
2017-Mar-21 04:32N 51°30' W 002°43'0 0.0
2017-Mar-21 03:32N 51°30' W 002°43'0 0.0
2017-Mar-21 02:32N 51°30' W 002°43'0 0.0
2017-Mar-21 01:32N 51°30' W 002°43'0 0.0
2017-Mar-21 00:32N 51°30' W 002°43'0 0.0
2017-Mar-20 23:32N 51°30' W 002°43'0 0.0
2017-Mar-20 22:32N 51°30' W 002°43'0 0.4
2017-Mar-20 21:34N 51°30' W 002°43'2 1.8
2017-Mar-20 20:34N 51°30' W 002°46'1817.4
2017-Mar-20 19:33N 51°21' W 003°11'2110.2
2017-Mar-20 17:26N 51°19' W 003°45'1513.5
2017-Mar-20 16:20N 51°18' W 004°09'1113.9
2017-Mar-20 15:34N 51°13' W 004°24'1414.3
2017-Mar-20 14:34N 51°04' W 004°42'1514.5
2017-Mar-20 13:34N 50°56' W 005°01'1514.7
2017-Mar-20 12:34N 50°47' W 005°20'  

Dump ship's entire track history